sensor_id;sensor_type;location;lat;lon;timestamp;temperature;humidity
5248;DHT22;2644;52.420;13.580;2022-09-25T00:00:24;13.00;99.90
5248;DHT22;2644;52.420;13.580;2022-09-25T00:01:27;13.00;99.90
5248;DHT22;2644;52.420;13.580;2022-09-25T00:02:30;13.10;99.90
5248;DHT22;2644;52.420;13.580;2022-09-25T00:03:32;13.10;99.90
5248;DHT22;2644;52.420;13.580;2022-09-25T00:04:35;13.00;99.90
5248;DHT22;2644;52.420;13.580;2022-09-25T00:05:39;13.10;99.90
5248;DHT22;2644;52.420;13.580;2022-09-25T00:06:42;13.00;99.90
5248;DHT22;2644;52.420;13.580;2022-09-25T00:07:48;13.00;99.90
5248;DHT22;2644;52.420;13.580;2022-09-25T00:08:50;13.00;99.90
5248;DHT22;2644;52.420;13.580;2022-09-25T00:09:54;13.00;99.90
5248;DHT22;2644;52.420;13.580;2022-09-25T00:10:58;13.00;99.90
5248;DHT22;2644;52.420;13.580;2022-09-25T00:12:02;13.00;99.90
5248;DHT22;2644;52.420;13.580;2022-09-25T00:13:04;13.00;99.90
5248;DHT22;2644;52.420;13.580;2022-09-25T00:14:08;13.00;99.90
5248;DHT22;2644;52.420;13.580;2022-09-25T00:15:10;12.90;99.90
5248;DHT22;2644;52.420;13.580;2022-09-25T00:16:15;12.90;99.90
5248;DHT22;2644;52.420;13.580;2022-09-25T00:17:18;12.90;99.90
5248;DHT22;2644;52.420;13.580;2022-09-25T00:18:21;12.90;99.90
5248;DHT22;2644;52.420;13.580;2022-09-25T00:19:39;12.90;99.90
5248;DHT22;2644;52.420;13.580;2022-09-25T00:20:59;12.90;99.90
5248;DHT22;2644;52.420;13.580;2022-09-25T00:22:02;12.90;99.90
5248;DHT22;2644;52.420;13.580;2022-09-25T00:23:05;12.90;99.90
5248;DHT22;2644;52.420;13.580;2022-09-25T00:24:10;12.90;99.90
5248;DHT22;2644;52.420;13.580;2022-09-25T00:25:15;12.90;99.90
5248;DHT22;2644;52.420;13.580;2022-09-25T00:26:18;12.90;99.90
5248;DHT22;2644;52.420;13.580;2022-09-25T00:27:21;12.80;99.90
5248;DHT22;2644;52.420;13.580;2022-09-25T00:28:24;12.80;99.90
5248;DHT22;2644;52.420;13.580;2022-09-25T00:29:26;12.80;99.90
5248;DHT22;2644;52.420;13.580;2022-09-25T00:30:29;12.80;99.90
5248;DHT22;2644;52.420;13.580;2022-09-25T00:31:31;12.90;99.90
5248;DHT22;2644;52.420;13.580;2022-09-25T00:32:35;12.90;99.90
5248;DHT22;2644;52.420;13.580;2022-09-25T00:33:37;12.80;99.90
5248;DHT22;2644;52.420;13.580;2022-09-25T00:34:40;12.90;99.90
5248;DHT22;2644;52.420;13.580;2022-09-25T00:35:44;12.90;99.90
5248;DHT22;2644;52.420;13.580;2022-09-25T00:36:47;12.80;99.90
5248;DHT22;2644;52.420;13.580;2022-09-25T00:37:50;12.80;99.90
5248;DHT22;2644;52.420;13.580;2022-09-25T00:38:54;12.80;99.90
5248;DHT22;2644;52.420;13.580;2022-09-25T00:39:57;12.80;99.90
5248;DHT22;2644;52.420;13.580;2022-09-25T00:41:00;12.80;99.90
5248;DHT22;2644;52.420;13.580;2022-09-25T00:42:03;12.80;99.90
5248;DHT22;2644;52.420;13.580;2022-09-25T00:43:08;12.80;99.90
5248;DHT22;2644;52.420;13.580;2022-09-25T00:44:48;12.80;99.90
5248;DHT22;2644;52.420;13.580;2022-09-25T00:45:53;12.80;99.90
5248;DHT22;2644;52.420;13.580;2022-09-25T00:46:56;12.80;99.90
5248;DHT22;2644;52.420;13.580;2022-09-25T00:48:00;12.80;99.90
5248;DHT22;2644;52.420;13.580;2022-09-25T00:49:09;12.80;99.90
5248;DHT22;2644;52.420;13.580;2022-09-25T00:50:21;12.80;99.90
5248;DHT22;2644;52.420;13.580;2022-09-25T00:51:27;12.70;99.90
5248;DHT22;2644;52.420;13.580;2022-09-25T00:52:31;12.70;99.90
5248;DHT22;2644;52.420;13.580;2022-09-25T00:53:36;12.70;99.90
5248;DHT22;2644;52.420;13.580;2022-09-25T00:54:42;12.60;99.90
5248;DHT22;2644;52.420;13.580;2022-09-25T00:55:47;12.70;99.90
5248;DHT22;2644;52.420;13.580;2022-09-25T00:56:50;12.60;99.90
5248;DHT22;2644;52.420;13.580;2022-09-25T00:57:55;12.70;99.90
5248;DHT22;2644;52.420;13.580;2022-09-25T00:58:58;12.60;99.90
5248;DHT22;2644;52.420;13.580;2022-09-25T01:00:06;12.60;99.90
5248;DHT22;2644;52.420;13.580;2022-09-25T01:01:09;12.60;99.90
5248;DHT22;2644;52.420;13.580;2022-09-25T01:02:16;12.60;99.90
5248;DHT22;2644;52.420;13.580;2022-09-25T01:03:21;12.60;99.90
5248;DHT22;2644;52.420;13.580;2022-09-25T01:04:26;12.50;99.90
5248;DHT22;2644;52.420;13.580;2022-09-25T01:05:31;12.50;99.90
5248;DHT22;2644;52.420;13.580;2022-09-25T01:06:34;12.50;99.90
5248;DHT22;2644;52.420;13.580;2022-09-25T01:07:38;12.50;99.90
5248;DHT22;2644;52.420;13.580;2022-09-25T01:08:42;12.40;99.90
5248;DHT22;2644;52.420;13.580;2022-09-25T01:09:47;12.50;99.90
5248;DHT22;2644;52.420;13.580;2022-09-25T01:10:51;12.50;99.90
5248;DHT22;2644;52.420;13.580;2022-09-25T01:11:54;12.50;99.90
5248;DHT22;2644;52.420;13.580;2022-09-25T01:12:57;12.50;99.90
5248;DHT22;2644;52.420;13.580;2022-09-25T01:14:04;12.50;99.90
5248;DHT22;2644;52.420;13.580;2022-09-25T01:15:08;12.40;99.90
5248;DHT22;2644;52.420;13.580;2022-09-25T01:16:14;12.40;99.90
5248;DHT22;2644;52.420;13.580;2022-09-25T01:17:25;12.40;99.90
5248;DHT22;2644;52.420;13.580;2022-09-25T01:18:49;12.30;99.90
5248;DHT22;2644;52.420;13.580;2022-09-25T01:20:02;12.30;99.90
5248;DHT22;2644;52.420;13.580;2022-09-25T01:21:17;12.30;99.90
5248;DHT22;2644;52.420;13.580;2022-09-25T01:22:33;12.30;99.90
5248;DHT22;2644;52.420;13.580;2022-09-25T01:23:55;12.30;99.90
5248;DHT22;2644;52.420;13.580;2022-09-25T01:25:09;12.30;99.90
5248;DHT22;2644;52.420;13.580;2022-09-25T01:26:25;12.30;99.90
5248;DHT22;2644;52.420;13.580;2022-09-25T01:27:38;12.30;99.90
5248;DHT22;2644;52.420;13.580;2022-09-25T01:28:53;12.30;99.90
5248;DHT22;2644;52.420;13.580;2022-09-25T01:30:00;12.30;99.90
5248;DHT22;2644;52.420;13.580;2022-09-25T01:31:10;12.40;99.90
5248;DHT22;2644;52.420;13.580;2022-09-25T01:32:20;12.30;99.90
5248;DHT22;2644;52.420;13.580;2022-09-25T01:33:28;12.40;99.90
5248;DHT22;2644;52.420;13.580;2022-09-25T01:34:38;12.30;99.90
5248;DHT22;2644;52.420;13.580;2022-09-25T01:35:46;12.30;99.90
5248;DHT22;2644;52.420;13.580;2022-09-25T01:36:55;12.30;99.90
5248;DHT22;2644;52.420;13.580;2022-09-25T01:38:06;12.30;99.90
5248;DHT22;2644;52.420;13.580;2022-09-25T01:39:18;12.30;99.90
5248;DHT22;2644;52.420;13.580;2022-09-25T01:40:25;12.30;99.90
5248;DHT22;2644;52.420;13.580;2022-09-25T01:41:36;12.20;99.90
5248;DHT22;2644;52.420;13.580;2022-09-25T01:42:44;12.30;99.90
5248;DHT22;2644;52.420;13.580;2022-09-25T01:43:54;12.30;99.90
5248;DHT22;2644;52.420;13.580;2022-09-25T01:45:01;12.30;99.90
5248;DHT22;2644;52.420;13.580;2022-09-25T01:46:08;12.30;99.90
5248;DHT22;2644;52.420;13.580;2022-09-25T01:47:15;12.30;99.90
5248;DHT22;2644;52.420;13.580;2022-09-25T01:48:24;12.30;99.90
5248;DHT22;2644;52.420;13.580;2022-09-25T01:49:30;12.30;99.90
5248;DHT22;2644;52.420;13.580;2022-09-25T01:50:37;12.30;99.90
5248;DHT22;2644;52.420;13.580;2022-09-25T01:51:47;12.30;99.90
5248;DHT22;2644;52.420;13.580;2022-09-25T01:52:52;12.30;99.90
5248;DHT22;2644;52.420;13.580;2022-09-25T01:54:01;12.30;99.90
5248;DHT22;2644;52.420;13.580;2022-09-25T01:55:08;12.30;99.90
5248;DHT22;2644;52.420;13.580;2022-09-25T01:56:17;12.30;99.90
5248;DHT22;2644;52.420;13.580;2022-09-25T01:57:23;12.30;99.90
5248;DHT22;2644;52.420;13.580;2022-09-25T01:58:32;12.20;99.90
5248;DHT22;2644;52.420;13.580;2022-09-25T01:59:39;12.20;99.90
5248;DHT22;2644;52.420;13.580;2022-09-25T02:00:49;12.30;99.90
5248;DHT22;2644;52.420;13.580;2022-09-25T02:01:53;12.30;99.90
5248;DHT22;2644;52.420;13.580;2022-09-25T02:03:04;12.30;99.90
5248;DHT22;2644;52.420;13.580;2022-09-25T02:04:12;12.30;99.90
5248;DHT22;2644;52.420;13.580;2022-09-25T02:05:19;12.30;99.90
5248;DHT22;2644;52.420;13.580;2022-09-25T02:06:24;12.30;99.90
5248;DHT22;2644;52.420;13.580;2022-09-25T02:07:32;12.30;99.90
5248;DHT22;2644;52.420;13.580;2022-09-25T02:08:40;12.30;99.90
5248;DHT22;2644;52.420;13.580;2022-09-25T02:09:48;12.30;99.90
5248;DHT22;2644;52.420;13.580;2022-09-25T02:10:53;12.30;99.90
5248;DHT22;2644;52.420;13.580;2022-09-25T02:12:01;12.20;99.90
5248;DHT22;2644;52.420;13.580;2022-09-25T02:13:09;12.30;99.90
5248;DHT22;2644;52.420;13.580;2022-09-25T02:14:17;12.20;99.90
5248;DHT22;2644;52.420;13.580;2022-09-25T02:15:24;12.20;99.90
5248;DHT22;2644;52.420;13.580;2022-09-25T02:16:34;12.20;99.90
5248;DHT22;2644;52.420;13.580;2022-09-25T02:17:42;12.20;99.90
5248;DHT22;2644;52.420;13.580;2022-09-25T02:19:04;12.20;99.90
5248;DHT22;2644;52.420;13.580;2022-09-25T02:20:26;12.20;99.90
5248;DHT22;2644;52.420;13.580;2022-09-25T02:21:43;12.20;99.90
5248;DHT22;2644;52.420;13.580;2022-09-25T02:22:51;12.30;99.90
5248;DHT22;2644;52.420;13.580;2022-09-25T02:23:59;12.30;99.90
5248;DHT22;2644;52.420;13.580;2022-09-25T02:25:11;12.30;99.90
5248;DHT22;2644;52.420;13.580;2022-09-25T02:26:20;12.20;99.90
5248;DHT22;2644;52.420;13.580;2022-09-25T02:27:25;12.20;99.90
5248;DHT22;2644;52.420;13.580;2022-09-25T02:28:28;12.20;99.90
5248;DHT22;2644;52.420;13.580;2022-09-25T02:29:31;12.20;99.90
5248;DHT22;2644;52.420;13.580;2022-09-25T02:30:35;12.20;99.90
5248;DHT22;2644;52.420;13.580;2022-09-25T02:31:41;12.20;99.90
5248;DHT22;2644;52.420;13.580;2022-09-25T02:32:43;12.20;99.90
5248;DHT22;2644;52.420;13.580;2022-09-25T02:33:46;12.20;99.90
5248;DHT22;2644;52.420;13.580;2022-09-25T02:34:51;12.10;99.90
5248;DHT22;2644;52.420;13.580;2022-09-25T02:35:54;12.20;99.90
5248;DHT22;2644;52.420;13.580;2022-09-25T02:36:56;12.10;99.90
5248;DHT22;2644;52.420;13.580;2022-09-25T02:38:00;12.10;99.90
5248;DHT22;2644;52.420;13.580;2022-09-25T02:39:05;12.10;99.90
5248;DHT22;2644;52.420;13.580;2022-09-25T02:40:08;12.10;99.90
5248;DHT22;2644;52.420;13.580;2022-09-25T02:41:17;12.10;99.90
5248;DHT22;2644;52.420;13.580;2022-09-25T02:42:28;12.10;99.90
5248;DHT22;2644;52.420;13.580;2022-09-25T02:43:44;12.10;99.90
5248;DHT22;2644;52.420;13.580;2022-09-25T02:45:01;12.10;99.90
5248;DHT22;2644;52.420;13.580;2022-09-25T02:46:12;12.10;99.90
5248;DHT22;2644;52.420;13.580;2022-09-25T02:47:22;12.10;99.90
5248;DHT22;2644;52.420;13.580;2022-09-25T02:48:31;12.10;99.90
5248;DHT22;2644;52.420;13.580;2022-09-25T02:49:46;12.10;99.90
5248;DHT22;2644;52.420;13.580;2022-09-25T02:50:55;12.10;99.90
5248;DHT22;2644;52.420;13.580;2022-09-25T02:52:05;12.20;99.90
5248;DHT22;2644;52.420;13.580;2022-09-25T02:53:14;12.20;99.90
5248;DHT22;2644;52.420;13.580;2022-09-25T02:54:22;12.10;99.90
5248;DHT22;2644;52.420;13.580;2022-09-25T02:55:31;12.10;99.90
5248;DHT22;2644;52.420;13.580;2022-09-25T02:56:40;12.10;99.90
5248;DHT22;2644;52.420;13.580;2022-09-25T02:57:50;12.10;99.90
5248;DHT22;2644;52.420;13.580;2022-09-25T02:58:56;12.10;99.90
5248;DHT22;2644;52.420;13.580;2022-09-25T03:00:04;12.20;99.90
5248;DHT22;2644;52.420;13.580;2022-09-25T03:01:12;12.10;99.90
5248;DHT22;2644;52.420;13.580;2022-09-25T03:02:16;12.10;99.90
5248;DHT22;2644;52.420;13.580;2022-09-25T03:03:20;12.10;99.90
5248;DHT22;2644;52.420;13.580;2022-09-25T03:04:26;12.10;99.90
5248;DHT22;2644;52.420;13.580;2022-09-25T03:05:30;12.10;99.90
5248;DHT22;2644;52.420;13.580;2022-09-25T03:06:33;12.10;99.90
5248;DHT22;2644;52.420;13.580;2022-09-25T03:07:36;12.10;99.90
5248;DHT22;2644;52.420;13.580;2022-09-25T03:08:54;12.10;99.90
5248;DHT22;2644;52.420;13.580;2022-09-25T03:09:58;12.00;99.90
5248;DHT22;2644;52.420;13.580;2022-09-25T03:11:01;12.00;99.90
5248;DHT22;2644;52.420;13.580;2022-09-25T03:12:06;12.10;99.90
5248;DHT22;2644;52.420;13.580;2022-09-25T03:13:16;12.10;99.90
5248;DHT22;2644;52.420;13.580;2022-09-25T03:14:19;12.10;99.90
5248;DHT22;2644;52.420;13.580;2022-09-25T03:15:23;12.00;99.90
5248;DHT22;2644;52.420;13.580;2022-09-25T03:16:31;12.00;99.90
5248;DHT22;2644;52.420;13.580;2022-09-25T03:17:36;12.00;99.90
5248;DHT22;2644;52.420;13.580;2022-09-25T03:18:40;12.00;99.90
5248;DHT22;2644;52.420;13.580;2022-09-25T03:19:43;12.00;99.90
5248;DHT22;2644;52.420;13.580;2022-09-25T03:20:45;12.00;99.90
5248;DHT22;2644;52.420;13.580;2022-09-25T03:21:48;12.00;99.90
5248;DHT22;2644;52.420;13.580;2022-09-25T03:22:51;12.00;99.90
5248;DHT22;2644;52.420;13.580;2022-09-25T03:23:54;11.90;99.90
5248;DHT22;2644;52.420;13.580;2022-09-25T03:24:57;12.00;99.90
5248;DHT22;2644;52.420;13.580;2022-09-25T03:26:00;12.00;99.90
5248;DHT22;2644;52.420;13.580;2022-09-25T03:27:02;12.00;99.90
5248;DHT22;2644;52.420;13.580;2022-09-25T03:28:08;12.00;99.90
5248;DHT22;2644;52.420;13.580;2022-09-25T03:29:11;12.00;99.90
5248;DHT22;2644;52.420;13.580;2022-09-25T03:30:15;12.00;99.90
5248;DHT22;2644;52.420;13.580;2022-09-25T03:31:17;12.00;99.90
5248;DHT22;2644;52.420;13.580;2022-09-25T03:32:23;12.00;99.90
5248;DHT22;2644;52.420;13.580;2022-09-25T03:33:26;12.00;99.90
5248;DHT22;2644;52.420;13.580;2022-09-25T03:34:30;12.00;99.90
5248;DHT22;2644;52.420;13.580;2022-09-25T03:35:32;12.00;99.90
5248;DHT22;2644;52.420;13.580;2022-09-25T03:36:35;12.00;99.90
5248;DHT22;2644;52.420;13.580;2022-09-25T03:37:38;12.00;99.90
5248;DHT22;2644;52.420;13.580;2022-09-25T03:38:41;11.90;99.90
5248;DHT22;2644;52.420;13.580;2022-09-25T03:39:44;11.90;99.90
5248;DHT22;2644;52.420;13.580;2022-09-25T03:40:47;11.90;99.90
5248;DHT22;2644;52.420;13.580;2022-09-25T03:41:50;11.90;99.90
5248;DHT22;2644;52.420;13.580;2022-09-25T03:42:52;12.00;99.90
5248;DHT22;2644;52.420;13.580;2022-09-25T03:43:58;12.00;99.90
5248;DHT22;2644;52.420;13.580;2022-09-25T03:45:02;12.00;99.90
5248;DHT22;2644;52.420;13.580;2022-09-25T03:46:04;12.00;99.90
5248;DHT22;2644;52.420;13.580;2022-09-25T03:47:08;12.00;99.90
5248;DHT22;2644;52.420;13.580;2022-09-25T03:48:11;12.00;99.90
5248;DHT22;2644;52.420;13.580;2022-09-25T03:49:14;12.00;99.90
5248;DHT22;2644;52.420;13.580;2022-09-25T03:50:16;12.00;99.90
5248;DHT22;2644;52.420;13.580;2022-09-25T03:51:20;12.00;99.90
5248;DHT22;2644;52.420;13.580;2022-09-25T03:52:23;12.00;99.90
5248;DHT22;2644;52.420;13.580;2022-09-25T03:53:26;11.90;99.90
5248;DHT22;2644;52.420;13.580;2022-09-25T03:54:28;11.90;99.90
5248;DHT22;2644;52.420;13.580;2022-09-25T03:55:31;11.90;99.90
5248;DHT22;2644;52.420;13.580;2022-09-25T03:56:34;11.90;99.90
5248;DHT22;2644;52.420;13.580;2022-09-25T03:57:37;11.90;99.90
5248;DHT22;2644;52.420;13.580;2022-09-25T03:58:39;11.90;99.90
5248;DHT22;2644;52.420;13.580;2022-09-25T03:59:42;12.00;99.90
5248;DHT22;2644;52.420;13.580;2022-09-25T04:00:45;12.00;99.90
5248;DHT22;2644;52.420;13.580;2022-09-25T04:01:48;12.00;99.90
5248;DHT22;2644;52.420;13.580;2022-09-25T04:02:50;12.00;99.90
5248;DHT22;2644;52.420;13.580;2022-09-25T04:03:55;12.00;99.90
5248;DHT22;2644;52.420;13.580;2022-09-25T04:04:58;12.00;99.90
5248;DHT22;2644;52.420;13.580;2022-09-25T04:06:02;12.00;99.90
5248;DHT22;2644;52.420;13.580;2022-09-25T04:07:06;12.00;99.90
5248;DHT22;2644;52.420;13.580;2022-09-25T04:08:09;11.90;99.90
5248;DHT22;2644;52.420;13.580;2022-09-25T04:09:12;11.90;99.90
5248;DHT22;2644;52.420;13.580;2022-09-25T04:10:15;12.00;99.90
5248;DHT22;2644;52.420;13.580;2022-09-25T04:11:20;12.00;99.90
5248;DHT22;2644;52.420;13.580;2022-09-25T04:12:23;12.00;99.90
5248;DHT22;2644;52.420;13.580;2022-09-25T04:13:26;11.90;99.90
5248;DHT22;2644;52.420;13.580;2022-09-25T04:14:30;11.90;99.90
5248;DHT22;2644;52.420;13.580;2022-09-25T04:15:32;12.00;99.90
5248;DHT22;2644;52.420;13.580;2022-09-25T04:16:36;12.00;99.90
5248;DHT22;2644;52.420;13.580;2022-09-25T04:17:38;12.00;99.90
5248;DHT22;2644;52.420;13.580;2022-09-25T04:18:41;12.00;99.90
5248;DHT22;2644;52.420;13.580;2022-09-25T04:19:45;12.00;99.90
5248;DHT22;2644;52.420;13.580;2022-09-25T04:20:48;11.90;99.90
5248;DHT22;2644;52.420;13.580;2022-09-25T04:21:50;11.90;99.90
5248;DHT22;2644;52.420;13.580;2022-09-25T04:22:53;11.90;99.90
5248;DHT22;2644;52.420;13.580;2022-09-25T04:23:55;11.90;99.90
5248;DHT22;2644;52.420;13.580;2022-09-25T04:25:16;11.80;99.90
5248;DHT22;2644;52.420;13.580;2022-09-25T04:26:25;11.80;99.90
5248;DHT22;2644;52.420;13.580;2022-09-25T04:27:27;11.80;99.90
5248;DHT22;2644;52.420;13.580;2022-09-25T04:28:30;11.80;99.90
5248;DHT22;2644;52.420;13.580;2022-09-25T04:29:33;11.80;99.90
5248;DHT22;2644;52.420;13.580;2022-09-25T04:30:36;11.90;99.90
5248;DHT22;2644;52.420;13.580;2022-09-25T04:31:38;11.80;99.90
5248;DHT22;2644;52.420;13.580;2022-09-25T04:32:41;11.80;99.90
5248;DHT22;2644;52.420;13.580;2022-09-25T04:34:02;11.80;99.90
5248;DHT22;2644;52.420;13.580;2022-09-25T04:35:06;11.80;99.90
5248;DHT22;2644;52.420;13.580;2022-09-25T04:36:09;11.90;99.90
5248;DHT22;2644;52.420;13.580;2022-09-25T04:37:12;11.80;99.90
5248;DHT22;2644;52.420;13.580;2022-09-25T04:38:14;11.80;99.90
5248;DHT22;2644;52.420;13.580;2022-09-25T04:39:17;11.80;99.90
5248;DHT22;2644;52.420;13.580;2022-09-25T04:40:21;11.80;99.90
5248;DHT22;2644;52.420;13.580;2022-09-25T04:41:24;11.80;99.90
5248;DHT22;2644;52.420;13.580;2022-09-25T04:42:26;11.70;99.90
5248;DHT22;2644;52.420;13.580;2022-09-25T04:43:30;11.70;99.90
5248;DHT22;2644;52.420;13.580;2022-09-25T04:44:32;11.80;99.90
5248;DHT22;2644;52.420;13.580;2022-09-25T04:45:35;11.70;99.90
5248;DHT22;2644;52.420;13.580;2022-09-25T04:46:37;11.80;99.90
5248;DHT22;2644;52.420;13.580;2022-09-25T04:47:40;11.80;99.90
5248;DHT22;2644;52.420;13.580;2022-09-25T04:48:43;11.80;99.90
5248;DHT22;2644;52.420;13.580;2022-09-25T04:49:47;11.80;99.90
5248;DHT22;2644;52.420;13.580;2022-09-25T04:50:51;11.80;99.90
5248;DHT22;2644;52.420;13.580;2022-09-25T04:51:54;11.80;99.90
5248;DHT22;2644;52.420;13.580;2022-09-25T04:52:58;11.80;99.90
5248;DHT22;2644;52.420;13.580;2022-09-25T04:54:01;11.80;99.90
5248;DHT22;2644;52.420;13.580;2022-09-25T04:55:04;11.80;99.90
5248;DHT22;2644;52.420;13.580;2022-09-25T04:56:08;11.80;99.90
5248;DHT22;2644;52.420;13.580;2022-09-25T04:57:18;11.80;99.90
5248;DHT22;2644;52.420;13.580;2022-09-25T04:58:43;11.80;99.90
5248;DHT22;2644;52.420;13.580;2022-09-25T04:59:47;11.70;99.90
5248;DHT22;2644;52.420;13.580;2022-09-25T05:00:49;11.70;99.90
5248;DHT22;2644;52.420;13.580;2022-09-25T05:01:55;11.70;99.90
5248;DHT22;2644;52.420;13.580;2022-09-25T05:02:57;11.70;99.90
5248;DHT22;2644;52.420;13.580;2022-09-25T05:04:00;11.70;99.90
5248;DHT22;2644;52.420;13.580;2022-09-25T05:05:09;11.70;99.90
5248;DHT22;2644;52.420;13.580;2022-09-25T05:06:13;11.70;99.90
5248;DHT22;2644;52.420;13.580;2022-09-25T05:07:15;11.70;99.90
5248;DHT22;2644;52.420;13.580;2022-09-25T05:08:18;11.70;99.90
5248;DHT22;2644;52.420;13.580;2022-09-25T05:09:20;11.70;99.90
5248;DHT22;2644;52.420;13.580;2022-09-25T05:10:26;11.60;99.90
5248;DHT22;2644;52.420;13.580;2022-09-25T05:11:28;11.60;99.90
5248;DHT22;2644;52.420;13.580;2022-09-25T05:12:32;11.60;99.90
5248;DHT22;2644;52.420;13.580;2022-09-25T05:13:34;11.60;99.90
5248;DHT22;2644;52.420;13.580;2022-09-25T05:14:37;11.60;99.90
5248;DHT22;2644;52.420;13.580;2022-09-25T05:15:41;11.70;99.90
5248;DHT22;2644;52.420;13.580;2022-09-25T05:16:44;11.70;99.90
5248;DHT22;2644;52.420;13.580;2022-09-25T05:17:47;11.70;99.90
5248;DHT22;2644;52.420;13.580;2022-09-25T05:18:55;11.70;99.90
5248;DHT22;2644;52.420;13.580;2022-09-25T05:20:08;11.70;99.90
5248;DHT22;2644;52.420;13.580;2022-09-25T05:21:13;11.70;99.90
5248;DHT22;2644;52.420;13.580;2022-09-25T05:22:16;11.70;99.90
5248;DHT22;2644;52.420;13.580;2022-09-25T05:23:19;11.70;99.90
5248;DHT22;2644;52.420;13.580;2022-09-25T05:24:22;11.70;99.90
5248;DHT22;2644;52.420;13.580;2022-09-25T05:25:25;11.70;99.90
5248;DHT22;2644;52.420;13.580;2022-09-25T05:26:28;11.70;99.90
5248;DHT22;2644;52.420;13.580;2022-09-25T05:27:31;11.70;99.90
5248;DHT22;2644;52.420;13.580;2022-09-25T05:28:34;11.70;99.90
5248;DHT22;2644;52.420;13.580;2022-09-25T05:29:36;11.70;99.90
5248;DHT22;2644;52.420;13.580;2022-09-25T05:30:39;11.70;99.90
5248;DHT22;2644;52.420;13.580;2022-09-25T05:31:41;11.70;99.90
5248;DHT22;2644;52.420;13.580;2022-09-25T05:32:47;11.80;99.90
5248;DHT22;2644;52.420;13.580;2022-09-25T05:33:50;11.80;99.90
5248;DHT22;2644;52.420;13.580;2022-09-25T05:34:54;11.80;99.90
5248;DHT22;2644;52.420;13.580;2022-09-25T05:35:59;11.80;99.90
5248;DHT22;2644;52.420;13.580;2022-09-25T05:37:04;11.80;99.90
5248;DHT22;2644;52.420;13.580;2022-09-25T05:38:06;11.80;99.90
5248;DHT22;2644;52.420;13.580;2022-09-25T05:39:09;11.80;99.90
5248;DHT22;2644;52.420;13.580;2022-09-25T05:40:16;11.80;99.90
5248;DHT22;2644;52.420;13.580;2022-09-25T05:41:21;11.70;99.90
5248;DHT22;2644;52.420;13.580;2022-09-25T05:42:29;11.80;99.90
5248;DHT22;2644;52.420;13.580;2022-09-25T05:43:36;11.80;99.90
5248;DHT22;2644;52.420;13.580;2022-09-25T05:44:39;11.80;99.90
5248;DHT22;2644;52.420;13.580;2022-09-25T05:45:42;11.80;99.90
5248;DHT22;2644;52.420;13.580;2022-09-25T05:46:46;11.80;99.90
5248;DHT22;2644;52.420;13.580;2022-09-25T05:47:48;11.80;99.90
5248;DHT22;2644;52.420;13.580;2022-09-25T05:48:50;11.80;99.90
5248;DHT22;2644;52.420;13.580;2022-09-25T05:49:52;11.80;99.90
5248;DHT22;2644;52.420;13.580;2022-09-25T05:50:56;11.80;99.90
5248;DHT22;2644;52.420;13.580;2022-09-25T05:51:59;11.70;99.90
5248;DHT22;2644;52.420;13.580;2022-09-25T05:53:04;11.80;99.90
5248;DHT22;2644;52.420;13.580;2022-09-25T05:54:07;11.80;99.90
5248;DHT22;2644;52.420;13.580;2022-09-25T05:55:09;11.70;99.90
5248;DHT22;2644;52.420;13.580;2022-09-25T05:56:12;11.70;99.90
5248;DHT22;2644;52.420;13.580;2022-09-25T05:57:14;11.70;99.90
5248;DHT22;2644;52.420;13.580;2022-09-25T05:58:17;11.80;99.90
5248;DHT22;2644;52.420;13.580;2022-09-25T05:59:20;11.80;99.90
5248;DHT22;2644;52.420;13.580;2022-09-25T06:00:23;11.80;99.90
5248;DHT22;2644;52.420;13.580;2022-09-25T06:01:25;11.80;99.90
5248;DHT22;2644;52.420;13.580;2022-09-25T06:02:28;11.80;99.90
5248;DHT22;2644;52.420;13.580;2022-09-25T06:03:30;11.80;99.90
5248;DHT22;2644;52.420;13.580;2022-09-25T06:04:33;11.80;99.90
5248;DHT22;2644;52.420;13.580;2022-09-25T06:05:35;11.80;99.90
5248;DHT22;2644;52.420;13.580;2022-09-25T06:06:38;11.80;99.90
5248;DHT22;2644;52.420;13.580;2022-09-25T06:07:41;11.90;99.90
5248;DHT22;2644;52.420;13.580;2022-09-25T06:08:44;11.90;99.90
5248;DHT22;2644;52.420;13.580;2022-09-25T06:09:47;11.90;99.90
5248;DHT22;2644;52.420;13.580;2022-09-25T06:10:51;11.90;99.90
5248;DHT22;2644;52.420;13.580;2022-09-25T06:11:55;12.00;99.90
5248;DHT22;2644;52.420;13.580;2022-09-25T06:12:58;12.00;99.90
5248;DHT22;2644;52.420;13.580;2022-09-25T06:14:01;12.00;99.90
5248;DHT22;2644;52.420;13.580;2022-09-25T06:15:05;12.00;99.90
5248;DHT22;2644;52.420;13.580;2022-09-25T06:16:13;12.00;99.90
5248;DHT22;2644;52.420;13.580;2022-09-25T06:17:18;12.00;99.90
5248;DHT22;2644;52.420;13.580;2022-09-25T06:18:22;11.90;99.90
5248;DHT22;2644;52.420;13.580;2022-09-25T06:19:25;11.90;99.90
5248;DHT22;2644;52.420;13.580;2022-09-25T06:20:30;11.90;99.90
5248;DHT22;2644;52.420;13.580;2022-09-25T06:21:33;11.90;99.90
5248;DHT22;2644;52.420;13.580;2022-09-25T06:22:35;11.90;99.90
5248;DHT22;2644;52.420;13.580;2022-09-25T06:23:40;11.90;99.90
5248;DHT22;2644;52.420;13.580;2022-09-25T06:24:47;11.90;99.90
5248;DHT22;2644;52.420;13.580;2022-09-25T06:25:49;12.00;99.90
5248;DHT22;2644;52.420;13.580;2022-09-25T06:26:52;12.00;99.90
5248;DHT22;2644;52.420;13.580;2022-09-25T06:27:56;12.00;99.90
5248;DHT22;2644;52.420;13.580;2022-09-25T06:29:00;12.00;99.90
5248;DHT22;2644;52.420;13.580;2022-09-25T06:30:05;11.90;99.90
5248;DHT22;2644;52.420;13.580;2022-09-25T06:31:07;11.90;99.90
5248;DHT22;2644;52.420;13.580;2022-09-25T06:32:10;11.90;99.90
5248;DHT22;2644;52.420;13.580;2022-09-25T06:33:13;11.90;99.90
5248;DHT22;2644;52.420;13.580;2022-09-25T06:34:16;11.90;99.90
5248;DHT22;2644;52.420;13.580;2022-09-25T06:35:18;11.90;99.90
5248;DHT22;2644;52.420;13.580;2022-09-25T06:36:21;11.90;99.90
5248;DHT22;2644;52.420;13.580;2022-09-25T06:37:23;12.00;99.90
5248;DHT22;2644;52.420;13.580;2022-09-25T06:38:27;12.00;99.90
5248;DHT22;2644;52.420;13.580;2022-09-25T06:39:29;12.10;99.90
5248;DHT22;2644;52.420;13.580;2022-09-25T06:40:35;12.10;99.90
5248;DHT22;2644;52.420;13.580;2022-09-25T06:41:40;12.20;99.90
5248;DHT22;2644;52.420;13.580;2022-09-25T06:42:45;12.20;99.90
5248;DHT22;2644;52.420;13.580;2022-09-25T06:43:48;12.30;99.90
5248;DHT22;2644;52.420;13.580;2022-09-25T06:44:51;12.40;99.90
5248;DHT22;2644;52.420;13.580;2022-09-25T06:45:53;12.40;99.90
5248;DHT22;2644;52.420;13.580;2022-09-25T06:46:56;12.50;99.90
5248;DHT22;2644;52.420;13.580;2022-09-25T06:48:03;12.60;99.90
5248;DHT22;2644;52.420;13.580;2022-09-25T06:49:06;12.60;99.90
5248;DHT22;2644;52.420;13.580;2022-09-25T06:50:08;12.70;99.90
5248;DHT22;2644;52.420;13.580;2022-09-25T06:51:13;12.70;99.90
5248;DHT22;2644;52.420;13.580;2022-09-25T06:52:15;12.90;99.90
5248;DHT22;2644;52.420;13.580;2022-09-25T06:53:19;12.90;99.90
5248;DHT22;2644;52.420;13.580;2022-09-25T06:54:22;13.00;99.90
5248;DHT22;2644;52.420;13.580;2022-09-25T06:55:24;13.00;99.90
5248;DHT22;2644;52.420;13.580;2022-09-25T06:56:28;13.10;99.90
5248;DHT22;2644;52.420;13.580;2022-09-25T06:57:30;13.20;99.90
5248;DHT22;2644;52.420;13.580;2022-09-25T06:58:36;13.20;99.90